createdAt,value
2018-08-22T00:00:25.765Z,19.80
2018-08-22T00:02:54.221Z,19.80
2018-08-22T00:05:22.698Z,19.80
2018-08-22T00:07:51.181Z,19.80
2018-08-22T00:10:19.642Z,19.70
2018-08-22T00:12:48.093Z,19.70
2018-08-22T00:15:16.649Z,19.60
2018-08-22T00:17:45.097Z,19.60
2018-08-22T00:20:13.545Z,19.50
2018-08-22T00:22:42.077Z,19.40
2018-08-22T00:25:10.532Z,19.40
2018-08-22T00:27:38.994Z,19.30
2018-08-22T00:30:07.502Z,19.40
2018-08-22T00:32:35.939Z,19.30
2018-08-22T00:35:04.505Z,19.30
2018-08-22T00:37:33.017Z,19.20
2018-08-22T00:40:01.506Z,19.30
2018-08-22T00:42:29.973Z,19.20
2018-08-22T00:44:58.438Z,19.20
2018-08-22T00:47:26.901Z,19.20
2018-08-22T00:49:55.342Z,19.20
2018-08-22T00:52:23.805Z,19.10
2018-08-22T00:54:52.257Z,19.20
2018-08-22T00:57:20.799Z,19.10
2018-08-22T00:59:49.425Z,19.00
2018-08-22T01:02:17.880Z,19.10
2018-08-22T01:04:46.344Z,19.00
2018-08-22T01:07:14.805Z,19.00
2018-08-22T01:09:43.233Z,19.00
2018-08-22T01:12:11.688Z,18.90
2018-08-22T01:14:40.273Z,19.00
2018-08-22T01:17:08.738Z,18.90
2018-08-22T01:19:37.295Z,18.90
2018-08-22T01:22:05.978Z,18.90
2018-08-22T01:24:34.414Z,18.90
2018-08-22T01:27:02.958Z,18.90
2018-08-22T01:29:31.453Z,18.90
2018-08-22T01:31:59.921Z,18.90
2018-08-22T01:34:28.382Z,18.90
2018-08-22T01:36:57.201Z,18.80
2018-08-22T01:39:25.713Z,18.80
2018-08-22T01:41:54.165Z,18.80
2018-08-22T01:44:22.635Z,18.80
2018-08-22T01:46:51.167Z,18.70
2018-08-22T01:49:19.678Z,18.70
2018-08-22T01:51:48.121Z,18.60
2018-08-22T01:54:16.610Z,18.70
2018-08-22T01:56:45.038Z,18.70
2018-08-22T01:59:13.506Z,18.70
2018-08-22T02:01:42.006Z,18.60
2018-08-22T02:04:10.537Z,18.70
2018-08-22T02:06:39.004Z,18.60
2018-08-22T02:09:09.753Z,18.60
2018-08-22T02:11:38.233Z,18.60
2018-08-22T02:14:06.882Z,18.60
2018-08-22T02:16:35.461Z,18.70
2018-08-22T02:19:03.977Z,18.60
2018-08-22T02:21:32.461Z,18.60
2018-08-22T02:24:00.934Z,18.60
2018-08-22T02:26:29.474Z,18.60
2018-08-22T02:28:57.898Z,18.60
2018-08-22T02:31:26.501Z,18.60
2018-08-22T02:33:55.012Z,18.60
2018-08-22T02:36:23.500Z,18.60
2018-08-22T02:38:51.946Z,18.50
2018-08-22T02:41:20.438Z,18.50
2018-08-22T02:43:49.150Z,18.60
2018-08-22T02:46:17.583Z,18.60
2018-08-22T02:48:57.197Z,18.60
2018-08-22T02:51:26.220Z,18.60
2018-08-22T02:53:54.699Z,18.60
2018-08-22T02:56:23.426Z,18.50
2018-08-22T02:58:52.017Z,18.50
2018-08-22T03:01:20.534Z,18.60
2018-08-22T03:03:48.982Z,18.60
2018-08-22T03:06:17.517Z,18.50
2018-08-22T03:08:46.861Z,18.50
2018-08-22T03:11:15.295Z,18.50
2018-08-22T03:13:43.937Z,18.50
2018-08-22T03:16:12.418Z,18.50
2018-08-22T03:18:40.899Z,18.50
2018-08-22T03:21:09.355Z,18.50
2018-08-22T03:23:37.873Z,18.50
2018-08-22T03:26:06.445Z,18.50
2018-08-22T03:28:35.030Z,18.60
2018-08-22T03:31:03.514Z,18.60
2018-08-22T03:33:32.006Z,18.60
2018-08-22T03:36:00.513Z,18.60
2018-08-22T03:38:28.994Z,18.60
2018-08-22T03:40:57.470Z,18.60
2018-08-22T03:43:26.024Z,18.60
2018-08-22T03:45:54.514Z,18.60
2018-08-22T03:48:23.000Z,18.60
2018-08-22T03:50:51.476Z,18.60
2018-08-22T03:53:19.945Z,18.60
2018-08-22T03:55:48.430Z,18.60
2018-08-22T03:58:16.954Z,18.60
2018-08-22T04:00:45.551Z,18.60
2018-08-22T04:03:14.123Z,18.60
2018-08-22T04:05:42.602Z,18.60
2018-08-22T04:08:11.049Z,18.60
2018-08-22T04:10:39.592Z,18.60
2018-08-22T04:13:08.045Z,18.50
2018-08-22T04:15:36.506Z,18.50
2018-08-22T04:18:05.030Z,18.50
2018-08-22T04:20:33.512Z,18.50
2018-08-22T04:23:02.025Z,18.50
2018-08-22T04:25:30.509Z,18.50
2018-08-22T04:27:58.966Z,18.50
2018-08-22T04:30:27.426Z,18.50
2018-08-22T04:32:55.918Z,18.50
2018-08-22T04:35:24.353Z,18.50
2018-08-22T04:37:52.837Z,18.50
2018-08-22T04:40:21.343Z,18.50
2018-08-22T04:42:49.818Z,18.50
2018-08-22T04:45:18.350Z,18.50
2018-08-22T04:47:46.811Z,18.60
2018-08-22T04:50:15.359Z,18.60
2018-08-22T04:52:43.954Z,18.60
2018-08-22T04:55:12.429Z,18.60
2018-08-22T04:57:40.913Z,18.60
2018-08-22T05:00:10.383Z,18.60
2018-08-22T05:02:39.079Z,18.70
2018-08-22T05:05:08.061Z,18.60
2018-08-22T05:07:36.590Z,18.60
2018-08-22T05:10:05.447Z,18.60
2018-08-22T05:12:33.959Z,18.70
2018-08-22T05:15:02.592Z,18.70
2018-08-22T05:17:31.125Z,18.90
2018-08-22T05:19:59.594Z,18.90
2018-08-22T05:22:28.116Z,19.00
2018-08-22T05:24:56.665Z,19.10
2018-08-22T05:27:25.217Z,19.40
2018-08-22T05:29:53.765Z,19.50
2018-08-22T05:32:22.217Z,19.70
2018-08-22T05:34:50.697Z,19.80
2018-08-22T05:37:19.229Z,19.90
2018-08-22T05:39:47.708Z,20.00
2018-08-22T05:42:16.379Z,20.10
2018-08-22T05:44:44.829Z,20.20
2018-08-22T05:47:13.393Z,20.20
2018-08-22T05:49:41.926Z,20.40
2018-08-22T05:52:10.421Z,20.60
2018-08-22T05:54:38.890Z,20.80
2018-08-22T05:57:07.362Z,20.80
2018-08-22T05:59:35.797Z,20.70
2018-08-22T06:02:04.262Z,21.00
2018-08-22T06:04:32.839Z,21.00
2018-08-22T06:07:01.372Z,21.20
2018-08-22T06:09:29.805Z,21.10
2018-08-22T06:11:58.314Z,21.40
2018-08-22T06:14:26.773Z,21.80
2018-08-22T06:16:55.252Z,21.80
2018-08-22T06:19:23.733Z,21.90
2018-08-22T06:21:52.178Z,22.00
2018-08-22T06:24:20.633Z,22.30
2018-08-22T06:26:49.154Z,22.40
2018-08-22T06:29:17.581Z,22.50
2018-08-22T06:31:46.093Z,22.60
2018-08-22T06:34:14.649Z,22.70
2018-08-22T06:36:43.133Z,23.00
2018-08-22T06:39:12.042Z,23.20
2018-08-22T06:41:41.129Z,23.30
2018-08-22T06:44:09.778Z,23.30
2018-08-22T06:46:38.277Z,23.40
2018-08-22T06:49:06.792Z,23.60
2018-08-22T06:51:35.269Z,23.80
2018-08-22T06:54:03.780Z,23.90
2018-08-22T06:56:32.626Z,24.20
2018-08-22T06:59:01.879Z,24.30
2018-08-22T07:01:30.386Z,24.10
2018-08-22T07:03:59.113Z,24.00
2018-08-22T07:06:28.088Z,23.90
2018-08-22T07:08:56.533Z,24.00
2018-08-22T07:11:25.061Z,23.80
2018-08-22T07:13:53.606Z,23.90
2018-08-22T07:16:22.084Z,24.30
2018-08-22T07:18:50.630Z,24.50
2018-08-22T07:21:19.337Z,24.70
2018-08-22T07:23:47.803Z,25.00
2018-08-22T07:26:16.296Z,24.90
2018-08-22T07:28:44.874Z,24.90
2018-08-22T07:31:13.421Z,24.90
2018-08-22T07:33:41.950Z,24.90
2018-08-22T07:36:10.869Z,25.20
2018-08-22T07:38:40.413Z,25.10
2018-08-22T07:41:09.028Z,25.00
2018-08-22T07:43:37.784Z,25.30
2018-08-22T07:46:06.363Z,25.30
2018-08-22T07:48:35.017Z,25.50
2018-08-22T07:51:03.553Z,25.60
2018-08-22T07:53:32.368Z,25.70
2018-08-22T07:56:01.058Z,25.70
2018-08-22T07:58:29.612Z,25.90
2018-08-22T08:00:58.450Z,26.10
2018-08-22T08:03:27.125Z,26.10
2018-08-22T08:05:56.002Z,26.00
2018-08-22T08:08:33.239Z,26.00
2018-08-22T08:11:02.094Z,26.00
2018-08-22T08:13:30.565Z,25.80
2018-08-22T08:15:59.537Z,25.90
2018-08-22T08:18:28.310Z,26.10
2018-08-22T08:20:56.906Z,26.10
2018-08-22T08:23:26.272Z,26.30
2018-08-22T08:25:54.879Z,26.60
2018-08-22T08:28:23.647Z,26.80
2018-08-22T08:30:52.515Z,26.50
2018-08-22T08:33:21.364Z,26.70
2018-08-22T08:35:49.952Z,26.80
2018-08-22T08:38:18.461Z,26.90
2018-08-22T08:40:46.913Z,26.90
2018-08-22T08:43:16.258Z,27.30
2018-08-22T08:45:44.735Z,27.30
2018-08-22T08:48:13.261Z,27.10
2018-08-22T08:50:41.745Z,27.10
2018-08-22T08:53:10.214Z,26.80
2018-08-22T08:55:38.691Z,27.10
2018-08-22T08:58:07.189Z,27.20
2018-08-22T09:00:35.669Z,27.30
2018-08-22T09:03:04.546Z,27.60
2018-08-22T09:05:33.040Z,27.90
2018-08-22T09:08:01.509Z,28.10
2018-08-22T09:10:29.981Z,28.20
2018-08-22T09:12:58.518Z,27.90
2018-08-22T09:15:27.050Z,27.30
2018-08-22T09:17:55.491Z,27.30
2018-08-22T09:20:24.026Z,27.40
2018-08-22T09:22:52.518Z,27.50
2018-08-22T09:25:20.985Z,27.90
2018-08-22T09:27:49.884Z,28.00
2018-08-22T09:30:18.389Z,27.90
2018-08-22T09:32:46.925Z,27.50
2018-08-22T09:35:15.502Z,27.80
2018-08-22T09:37:43.961Z,27.90
2018-08-22T09:40:12.495Z,28.10
2018-08-22T09:42:40.941Z,28.20
2018-08-22T09:45:09.495Z,28.10
2018-08-22T09:47:38.027Z,28.10
2018-08-22T09:50:06.569Z,28.30
2018-08-22T09:52:35.173Z,28.40
2018-08-22T09:55:05.154Z,28.40
2018-08-22T09:57:33.727Z,28.60
2018-08-22T10:00:02.286Z,28.70
2018-08-22T10:02:30.940Z,28.90
2018-08-22T10:04:59.578Z,29.00
2018-08-22T10:07:28.265Z,29.20
2018-08-22T10:09:57.577Z,28.90
2018-08-22T10:12:26.041Z,29.10
2018-08-22T10:14:54.567Z,29.20
2018-08-22T10:17:23.106Z,29.40
2018-08-22T10:19:51.560Z,29.10
2018-08-22T10:22:20.013Z,28.90
2018-08-22T10:24:49.235Z,28.90
2018-08-22T10:27:17.742Z,29.00
2018-08-22T10:29:46.242Z,29.40
2018-08-22T10:32:14.742Z,29.50
2018-08-22T10:34:43.420Z,29.60
2018-08-22T10:37:12.035Z,29.60
2018-08-22T10:39:40.558Z,29.50
2018-08-22T10:42:09.070Z,29.80
2018-08-22T10:44:37.594Z,30.00
2018-08-22T10:47:06.042Z,29.50
2018-08-22T10:49:34.521Z,29.30
2018-08-22T10:52:03.082Z,29.30
2018-08-22T10:54:31.595Z,29.10
2018-08-22T10:57:00.088Z,29.20
2018-08-22T10:59:28.588Z,29.50
2018-08-22T11:01:57.091Z,29.60
2018-08-22T11:04:25.921Z,29.40
2018-08-22T11:06:54.379Z,29.50
2018-08-22T11:09:22.853Z,29.60
2018-08-22T11:11:51.392Z,29.70
2018-08-22T11:14:19.834Z,29.70
2018-08-22T11:16:48.327Z,29.50
2018-08-22T11:19:16.833Z,29.80
2018-08-22T11:21:56.456Z,29.80
2018-08-22T11:24:35.996Z,29.90
2018-08-22T11:27:15.613Z,29.70
2018-08-22T11:29:55.376Z,29.70
2018-08-22T11:32:35.245Z,29.40
2018-08-22T11:35:02.655Z,29.40
2018-08-22T11:37:31.138Z,29.50
2018-08-22T11:39:59.630Z,29.60
2018-08-22T11:42:28.257Z,29.70
2018-08-22T11:44:56.706Z,30.00
2018-08-22T11:47:25.917Z,29.80
2018-08-22T11:49:54.406Z,29.60
2018-08-22T11:52:22.889Z,29.30
2018-08-22T11:54:51.378Z,29.30
2018-08-22T11:57:19.820Z,29.60
2018-08-22T11:59:48.314Z,29.70
2018-08-22T12:02:17.077Z,29.70
2018-08-22T12:04:45.569Z,30.10
2018-08-22T12:07:14.107Z,30.10
2018-08-22T12:09:42.665Z,29.70
2018-08-22T12:12:11.188Z,29.70
2018-08-22T12:14:39.628Z,30.00
2018-08-22T12:17:08.121Z,30.00
2018-08-22T12:19:36.626Z,29.80
2018-08-22T12:22:05.116Z,29.90
2018-08-22T12:24:33.629Z,29.80
2018-08-22T12:27:02.101Z,29.90
2018-08-22T12:29:30.761Z,29.80
2018-08-22T12:31:59.193Z,29.80
2018-08-22T12:34:27.720Z,29.70
2018-08-22T12:36:56.778Z,29.80
2018-08-22T12:39:25.227Z,30.00
2018-08-22T12:41:54.284Z,30.00
2018-08-22T12:44:22.773Z,29.90
2018-08-22T12:46:51.253Z,29.70
2018-08-22T12:49:19.712Z,30.10
2018-08-22T12:51:48.182Z,30.20
2018-08-22T12:54:16.698Z,30.00
2018-08-22T12:56:45.122Z,29.90
2018-08-22T12:59:13.593Z,30.20
2018-08-22T13:01:42.081Z,30.20
2018-08-22T13:04:10.546Z,30.00
2018-08-22T13:06:39.042Z,30.00
2018-08-22T13:09:08.858Z,29.80
2018-08-22T13:11:37.447Z,30.00
2018-08-22T13:14:05.953Z,30.20
2018-08-22T13:16:34.414Z,30.30
2018-08-22T13:19:02.933Z,30.20
2018-08-22T13:21:31.440Z,30.10
2018-08-22T13:24:00.039Z,30.20
2018-08-22T13:26:28.556Z,30.30
2018-08-22T13:28:57.216Z,30.40
2018-08-22T13:31:25.712Z,30.40
2018-08-22T13:33:54.164Z,30.20
2018-08-22T13:36:22.730Z,29.90
2018-08-22T13:38:51.298Z,29.90
2018-08-22T13:41:19.754Z,29.80
2018-08-22T13:43:48.233Z,29.80
2018-08-22T13:46:16.704Z,29.80
2018-08-22T13:48:45.315Z,29.90
2018-08-22T13:51:13.866Z,30.10
2018-08-22T13:53:42.350Z,30.10
2018-08-22T13:56:10.913Z,30.00
2018-08-22T13:58:39.427Z,29.80
2018-08-22T14:01:08.168Z,29.80
2018-08-22T14:03:36.746Z,29.90
2018-08-22T14:06:05.343Z,29.90
2018-08-22T14:08:34.064Z,29.80
2018-08-22T14:11:02.629Z,29.90
2018-08-22T14:13:31.137Z,30.00
2018-08-22T14:15:59.760Z,30.00
2018-08-22T14:18:28.333Z,30.00
2018-08-22T14:20:56.900Z,29.90
2018-08-22T14:23:25.459Z,29.80
2018-08-22T14:25:53.987Z,29.70
2018-08-22T14:28:22.432Z,29.70
2018-08-22T14:30:50.938Z,29.90
2018-08-22T14:33:19.389Z,29.90
2018-08-22T14:35:47.883Z,29.80
2018-08-22T14:38:16.376Z,29.60
2018-08-22T14:40:44.826Z,29.50
2018-08-22T14:43:13.329Z,29.40
2018-08-22T14:45:41.801Z,29.30
2018-08-22T14:48:10.449Z,29.10
2018-08-22T14:50:38.961Z,29.00
2018-08-22T14:53:07.433Z,28.90
2018-08-22T14:55:35.922Z,28.90
2018-08-22T14:58:04.455Z,28.90
2018-08-22T15:00:32.918Z,28.70
2018-08-22T15:03:01.489Z,28.60
2018-08-22T15:05:29.888Z,28.70
2018-08-22T15:07:58.443Z,28.70
2018-08-22T15:10:26.905Z,28.60
2018-08-22T15:12:55.342Z,28.60
2018-08-22T15:15:23.820Z,28.70
2018-08-22T15:17:52.265Z,28.80
2018-08-22T15:20:20.812Z,28.80
2018-08-22T15:22:49.375Z,28.60
2018-08-22T15:25:17.838Z,28.50
2018-08-22T15:27:46.630Z,28.20
2018-08-22T15:30:15.097Z,28.30
2018-08-22T15:32:43.630Z,28.40
2018-08-22T15:35:12.186Z,28.30
2018-08-22T15:37:40.698Z,28.40
2018-08-22T15:40:10.429Z,28.30
2018-08-22T15:42:38.920Z,28.40
2018-08-22T15:45:07.391Z,28.50
2018-08-22T15:47:36.015Z,28.40
2018-08-22T15:50:05.102Z,28.30
2018-08-22T15:52:34.591Z,28.40
2018-08-22T15:55:13.497Z,28.20
2018-08-22T15:57:54.396Z,28.20
2018-08-22T16:00:39.960Z,28.10
2018-08-22T16:03:09.478Z,27.90
2018-08-22T16:05:38.701Z,27.80
2018-08-22T16:08:07.646Z,27.80
2018-08-22T16:10:36.182Z,27.80
2018-08-22T16:13:04.714Z,27.60
2018-08-22T16:15:36.142Z,27.50
2018-08-22T16:18:07.878Z,27.40
2018-08-22T16:20:44.021Z,27.30
2018-08-22T16:23:12.610Z,27.40
2018-08-22T16:25:48.906Z,27.20
2018-08-22T16:28:17.580Z,27.10
2018-08-22T16:30:56.770Z,27.10
2018-08-22T16:33:14.590Z,27.10
2018-08-22T16:35:43.133Z,27.10
2018-08-22T16:38:13.006Z,26.90
2018-08-22T16:40:47.593Z,26.90
2018-08-22T16:43:30.321Z,26.90
2018-08-22T16:45:58.842Z,26.80
2018-08-22T16:48:27.314Z,26.60
2018-08-22T16:50:55.746Z,26.60
2018-08-22T16:53:24.209Z,26.50
2018-08-22T16:55:52.637Z,26.30
2018-08-22T16:58:21.386Z,26.30
2018-08-22T17:00:50.421Z,26.10
2018-08-22T17:03:18.941Z,26.00
2018-08-22T17:05:47.434Z,25.90
2018-08-22T17:08:15.895Z,25.80
2018-08-22T17:10:51.975Z,25.70
2018-08-22T17:13:28.301Z,25.60
2018-08-22T17:15:57.521Z,25.50
2018-08-22T17:18:26.601Z,25.40
2018-08-22T17:20:55.028Z,25.40
2018-08-22T17:23:23.522Z,25.30
2018-08-22T17:25:51.973Z,25.30
2018-08-22T17:28:25.686Z,25.30
2018-08-22T17:30:54.102Z,25.20
2018-08-22T17:33:24.761Z,25.20
2018-08-22T17:35:57.461Z,25.10
2018-08-22T17:38:26.305Z,25.10
2018-08-22T17:40:54.772Z,25.00
2018-08-22T17:43:23.283Z,24.90
2018-08-22T17:45:51.791Z,24.90
2018-08-22T17:48:21.677Z,24.80
2018-08-22T17:50:50.457Z,24.60
2018-08-22T17:53:19.623Z,24.50
2018-08-22T17:55:49.374Z,24.50
2018-08-22T17:58:18.153Z,24.40
2018-08-22T18:00:46.672Z,24.40
2018-08-22T18:03:15.301Z,24.30
2018-08-22T18:05:43.724Z,24.30
2018-08-22T18:08:12.195Z,24.20
2018-08-22T18:10:40.814Z,24.10
2018-08-22T18:13:14.553Z,24.10
2018-08-22T18:15:43.771Z,24.00
2018-08-22T18:18:12.313Z,24.00
2018-08-22T18:20:45.007Z,23.90
2018-08-22T18:23:13.558Z,23.90
2018-08-22T18:25:47.556Z,23.70
2018-08-22T18:28:16.094Z,23.70
2018-08-22T18:30:45.082Z,23.60
2018-08-22T18:33:13.608Z,23.50
2018-08-22T18:35:43.858Z,23.50
2018-08-22T18:38:12.378Z,23.40
2018-08-22T18:40:40.874Z,23.30
2018-08-22T18:43:09.768Z,23.30
2018-08-22T18:46:09.325Z,23.20
2018-08-22T18:48:38.496Z,23.10
2018-08-22T18:51:06.973Z,23.10
2018-08-22T18:53:35.546Z,23.00
2018-08-22T18:56:15.396Z,22.90
2018-08-22T18:58:43.897Z,22.80
2018-08-22T19:01:12.337Z,22.70
2018-08-22T19:03:40.885Z,22.70
2018-08-22T19:06:09.397Z,22.60
2018-08-22T19:08:38.839Z,22.50
2018-08-22T19:11:08.083Z,22.50
2018-08-22T19:13:36.557Z,22.50
2018-08-22T19:16:07.358Z,22.30
2018-08-22T19:18:35.901Z,22.20
2018-08-22T19:21:05.846Z,22.00
2018-08-22T19:23:34.349Z,21.90
2018-08-22T19:26:03.977Z,21.80
2018-08-22T19:28:38.368Z,21.70
2018-08-22T19:31:06.909Z,21.80
2018-08-22T19:33:35.504Z,21.60
2018-08-22T19:36:04.252Z,21.60
2018-08-22T19:38:32.718Z,21.60
2018-08-22T19:41:15.514Z,21.50
2018-08-22T19:43:44.001Z,21.40
2018-08-22T19:46:12.521Z,21.40
2018-08-22T19:48:41.009Z,21.40
2018-08-22T19:51:09.490Z,21.30
2018-08-22T19:53:42.527Z,21.30
2018-08-22T19:56:11.200Z,21.30
2018-08-22T19:58:39.726Z,21.20
2018-08-22T20:01:09.042Z,21.20
2018-08-22T20:03:37.589Z,21.20
2018-08-22T20:06:06.902Z,21.10
2018-08-22T20:08:37.482Z,21.10
2018-08-22T20:11:06.494Z,21.10
2018-08-22T20:13:47.242Z,21.00
2018-08-22T20:16:16.296Z,21.00
2018-08-22T20:18:47.402Z,21.00
2018-08-22T20:21:18.734Z,21.00
2018-08-22T20:23:47.263Z,21.00
2018-08-22T20:26:15.740Z,20.90
2018-08-22T20:28:48.523Z,21.00
2018-08-22T20:31:17.073Z,20.90
2018-08-22T20:33:56.996Z,20.90
2018-08-22T20:36:25.591Z,20.80
2018-08-22T20:38:54.106Z,20.80
2018-08-22T20:41:22.673Z,20.70
2018-08-22T20:43:51.129Z,20.70
2018-08-22T20:46:19.682Z,20.70
2018-08-22T20:48:49.677Z,20.60
2018-08-22T20:51:18.234Z,20.60
2018-08-22T20:53:52.465Z,20.60
2018-08-22T20:56:21.202Z,20.50
2018-08-22T20:58:49.744Z,20.50
2018-08-22T21:01:18.313Z,20.40
2018-08-22T21:03:47.858Z,20.40
2018-08-22T21:06:16.333Z,20.40
2018-08-22T21:08:44.843Z,20.40
2018-08-22T21:11:13.341Z,20.30
2018-08-22T21:13:41.846Z,20.30
2018-08-22T21:16:10.334Z,20.30
2018-08-22T21:18:39.632Z,20.20
2018-08-22T21:21:12.268Z,20.20
2018-08-22T21:23:40.765Z,20.20
2018-08-22T21:26:10.001Z,20.10
2018-08-22T21:28:42.082Z,20.10
2018-08-22T21:31:10.560Z,20.00
2018-08-22T21:33:39.066Z,20.00
2018-08-22T21:36:07.681Z,19.90
2018-08-22T21:38:36.169Z,19.90
2018-08-22T21:41:04.640Z,19.90
2018-08-22T21:43:33.109Z,19.90
2018-08-22T21:46:01.626Z,19.80
2018-08-22T21:48:30.214Z,19.80
2018-08-22T21:50:58.682Z,19.70
2018-08-22T21:53:27.615Z,19.70
2018-08-22T21:55:56.317Z,19.70
2018-08-22T21:58:25.735Z,19.60
2018-08-22T22:00:54.298Z,19.60
2018-08-22T22:03:27.978Z,19.60
2018-08-22T22:06:00.626Z,19.60
2018-08-22T22:08:29.194Z,19.50
2018-08-22T22:10:59.124Z,19.50
2018-08-22T22:13:27.772Z,19.50
2018-08-22T22:15:59.137Z,19.50
2018-08-22T22:18:27.800Z,19.50
2018-08-22T22:21:07.050Z,19.50
2018-08-22T22:23:40.785Z,19.40
2018-08-22T22:26:09.359Z,19.40
2018-08-22T22:28:37.817Z,19.30
2018-08-22T22:31:08.502Z,19.30
2018-08-22T22:33:37.085Z,19.30
2018-08-22T22:36:05.687Z,19.30
2018-08-22T22:38:34.323Z,19.30
2018-08-22T22:41:03.100Z,19.30
2018-08-22T22:43:31.614Z,19.20
2018-08-22T22:46:00.126Z,19.30
2018-08-22T22:48:34.863Z,19.20
2018-08-22T22:51:03.707Z,19.20
2018-08-22T22:53:32.190Z,19.20
2018-08-22T22:56:00.730Z,19.20
2018-08-22T22:58:29.210Z,19.10
2018-08-22T23:00:57.710Z,19.10
2018-08-22T23:03:26.247Z,19.00
2018-08-22T23:05:54.727Z,19.10
2018-08-22T23:08:23.239Z,19.10
2018-08-22T23:10:51.796Z,19.10
2018-08-22T23:13:20.278Z,19.00
2018-08-22T23:15:48.823Z,19.00
2018-08-22T23:18:17.885Z,19.00
2018-08-22T23:20:46.641Z,18.90
2018-08-22T23:23:31.803Z,18.90
2018-08-22T23:26:05.897Z,18.90
2018-08-22T23:28:34.724Z,18.90
2018-08-22T23:31:03.236Z,18.80
2018-08-22T23:33:31.729Z,18.80
2018-08-22T23:36:00.244Z,18.80
2018-08-22T23:38:31.026Z,18.80
2018-08-22T23:41:00.064Z,18.80
2018-08-22T23:43:37.386Z,18.80
2018-08-22T23:46:07.238Z,18.70
2018-08-22T23:48:36.553Z,18.70
2018-08-22T23:51:06.460Z,18.70
2018-08-22T23:53:41.695Z,18.70
2018-08-22T23:56:24.674Z,18.70
2018-08-22T23:58:53.840Z,18.60
